PWSweather.com
Personal Weather Stations
Station Observations
NAGEO265NE
Bedzin GrodziecPL 42-506

Bedzin GrodziecPL 42-506

Lat: 50.347, Lon: 19.079

Elevation: 948

Station Type: WH1080

http://www.meteo-grodziec.pl/

High Low Average
Temperature 36.7°F2.6°C 33.3°F0.7°C 35.0°F1.7°C
Dew Point 35.6°F2.0°C 31.3°F-0.4°C 33.3°F0.7°C
Winds 6.0 mph 9.7 kmh Calm Calm 2.0 mph NW3.2 kmh NW
Wind Gusts 14.0 mph22.5 kmh -- 7.0 mph11.3 kmh
Humidity 96% 90% 93%
Pressure 30.44 in1030.8 mb 30.18 in1022.0 mb -
Precipitation 0.06 in1.5 mm - -
Hour Temp Dew Point Humidity Winds Wind Gusts Pressure Precip Precip Rate Daily Precip Total
12:00 AM 36.7°F2.6°C 35.6°F2.0°C 96% 2.0 mph NW3.2 kmh NW 8.0 mph12.9 kmh 30.18 in1022.0 mb 0.00 in0.0 mm 0.00 in0.0 mm 0.00 in0.0 mm
12:05 AM 36.7°F2.6°C 35.6°F2.0°C 96% 1.0 mph NW1.6 kmh NW 5.0 mph8.0 kmh 30.18 in1022.0 mb 0.00 in0.0 mm 0.00 in0.0 mm 0.00 in0.0 mm
12:10 AM 36.7°F2.6°C 35.6°F2.0°C 96% 1.0 mph NW1.6 kmh NW 9.0 mph14.5 kmh 30.18 in1022.0 mb 0.00 in0.0 mm 0.00 in0.0 mm 0.00 in0.0 mm
12:15 AM 36.5°F2.5°C 35.4°F1.9°C 96% 2.0 mph NW3.2 kmh NW 9.0 mph14.5 kmh 30.19 in1022.4 mb 0.00 in0.0 mm 0.00 in0.0 mm 0.00 in0.0 mm
12:20 AM 36.3°F2.4°C 35.4°F1.9°C 96% 3.0 mph NW4.8 kmh NW 11.0 mph17.7 kmh 30.19 in1022.4 mb 0.00 in0.0 mm 0.00 in0.0 mm 0.00 in0.0 mm
12:25 AM 36.3°F2.4°C 35.1°F1.7°C 95% 3.0 mph NW4.8 kmh NW 11.0 mph17.7 kmh 30.19 in1022.4 mb 0.00 in0.0 mm 0.00 in0.0 mm 0.00 in0.0 mm
12:30 AM 36.1°F2.3°C 34.9°F1.6°C 95% 3.0 mph NW4.8 kmh NW 11.0 mph17.7 kmh 30.19 in1022.4 mb 0.01 in0.3 mm 0.12 in3.0 mm 0.01 in0.3 mm
12:35 AM 36.1°F2.3°C 34.9°F1.6°C 95% 4.0 mph NW6.4 kmh NW 11.0 mph17.7 kmh 30.19 in1022.4 mb 0.01 in0.3 mm 0.00 in0.0 mm 0.01 in0.3 mm
12:40 AM 36.1°F2.3°C 34.9°F1.6°C 95% 4.0 mph NW6.4 kmh NW 12.0 mph19.3 kmh 30.19 in1022.4 mb 0.01 in0.3 mm 0.00 in0.0 mm 0.01 in0.3 mm
12:45 AM 36.0°F2.2°C 34.7°F1.5°C 95% 3.0 mph NW4.8 kmh NW 12.0 mph19.3 kmh 30.19 in1022.4 mb 0.01 in0.3 mm 0.00 in0.0 mm 0.01 in0.3 mm
12:50 AM 36.0°F2.2°C 34.5°F1.4°C 95% 2.0 mph NW3.2 kmh NW 7.0 mph11.3 kmh 30.20 in1022.7 mb 0.01 in0.3 mm 0.00 in0.0 mm 0.01 in0.3 mm
12:55 AM 36.0°F2.2°C 34.5°F1.4°C 95% 2.0 mph NW3.2 kmh NW 7.0 mph11.3 kmh 30.19 in1022.4 mb 0.01 in0.3 mm 0.00 in0.0 mm 0.01 in0.3 mm
01:00 AM 36.0°F2.2°C 34.5°F1.4°C 95% 1.0 mph NW1.6 kmh NW 6.0 mph9.7 kmh 30.20 in1022.7 mb 0.01 in0.3 mm 0.00 in0.0 mm 0.01 in0.3 mm
01:05 AM 36.0°F2.2°C 34.5°F1.4°C 95% 2.0 mph NW3.2 kmh NW 7.0 mph11.3 kmh 30.20 in1022.7 mb 0.01 in0.3 mm 0.00 in0.0 mm 0.01 in0.3 mm
01:10 AM 36.0°F2.2°C 34.9°F1.6°C 96% 2.0 mph NW3.2 kmh NW 7.0 mph11.3 kmh 30.20 in1022.7 mb 0.01 in0.3 mm 0.00 in0.0 mm 0.01 in0.3 mm
01:15 AM 36.0°F2.2°C 34.9°F1.6°C 96% 2.0 mph NW3.2 kmh NW 6.0 mph9.7 kmh 30.20 in1022.7 mb 0.01 in0.3 mm 0.00 in0.0 mm 0.01 in0.3 mm
01:20 AM 36.0°F2.2°C 35.1°F1.7°C 96% 2.0 mph NW3.2 kmh NW 6.0 mph9.7 kmh 30.20 in1022.7 mb 0.01 in0.3 mm 0.00 in0.0 mm 0.01 in0.3 mm
01:25 AM 36.0°F2.2°C 35.1°F1.7°C 96% 2.0 mph NW3.2 kmh NW 6.0 mph9.7 kmh 30.20 in1022.7 mb 0.01 in0.3 mm 0.00 in0.0 mm 0.01 in0.3 mm
01:30 AM 36.0°F2.2°C 35.1°F1.7°C 96% 2.0 mph NW3.2 kmh NW 6.0 mph9.7 kmh 30.20 in1022.7 mb 0.00 in0.0 mm 0.00 in0.0 mm 0.01 in0.3 mm
01:35 AM 36.0°F2.2°C 34.9°F1.6°C 96% 2.0 mph NW3.2 kmh NW 7.0 mph11.3 kmh 30.20 in1022.7 mb 0.01 in0.3 mm 0.12 in3.0 mm 0.02 in0.5 mm
01:40 AM 36.0°F2.2°C 34.9°F1.6°C 96% 2.0 mph NW3.2 kmh NW 7.0 mph11.3 kmh 30.21 in1023.0 mb 0.01 in0.3 mm 0.00 in0.0 mm 0.02 in0.5 mm
01:45 AM 35.8°F2.1°C 34.7°F1.5°C 96% 2.0 mph NW3.2 kmh NW 7.0 mph11.3 kmh 30.21 in1023.0 mb 0.01 in0.3 mm 0.00 in0.0 mm 0.02 in0.5 mm
01:50 AM 35.8°F2.1°C 34.7°F1.5°C 96% 2.0 mph NW3.2 kmh NW 8.0 mph12.9 kmh 30.21 in1023.0 mb 0.01 in0.3 mm 0.00 in0.0 mm 0.02 in0.5 mm
01:55 AM 35.6°F2.0°C 34.5°F1.4°C 96% 3.0 mph NW4.8 kmh NW 10.0 mph16.1 kmh 30.21 in1023.0 mb 0.01 in0.3 mm 0.00 in0.0 mm 0.02 in0.5 mm
02:00 AM 35.8°F2.1°C 34.7°F1.5°C 96% 3.0 mph NW4.8 kmh NW 10.0 mph16.1 kmh 30.21 in1023.0 mb 0.02 in0.5 mm 0.01 in0.3 mm 0.02 in0.5 mm
02:05 AM 35.8°F2.1°C 34.7°F1.5°C 96% 3.0 mph NW4.8 kmh NW 9.0 mph14.5 kmh 30.21 in1023.0 mb 0.02 in0.5 mm 0.00 in0.0 mm 0.02 in0.5 mm
02:10 AM 35.8°F2.1°C 34.7°F1.5°C 96% 3.0 mph NW4.8 kmh NW 12.0 mph19.3 kmh 30.21 in1023.0 mb 0.02 in0.5 mm 0.00 in0.0 mm 0.02 in0.5 mm
02:15 AM 35.8°F2.1°C 34.7°F1.5°C 96% 3.0 mph NW4.8 kmh NW 12.0 mph19.3 kmh 30.21 in1023.0 mb 0.02 in0.5 mm 0.00 in0.0 mm 0.02 in0.5 mm
02:20 AM 35.8°F2.1°C 34.7°F1.5°C 96% 3.0 mph NW4.8 kmh NW 10.0 mph16.1 kmh 30.22 in1023.4 mb 0.02 in0.5 mm 0.00 in0.0 mm 0.02 in0.5 mm
02:25 AM 35.8°F2.1°C 34.7°F1.5°C 96% 3.0 mph NW4.8 kmh NW 10.0 mph16.1 kmh 30.22 in1023.4 mb 0.02 in0.5 mm 0.00 in0.0 mm 0.02 in0.5 mm
02:30 AM 35.8°F2.1°C 34.7°F1.5°C 96% 4.0 mph NW6.4 kmh NW 10.0 mph16.1 kmh 30.22 in1023.4 mb 0.02 in0.5 mm 0.00 in0.0 mm 0.02 in0.5 mm
02:35 AM 35.8°F2.1°C 34.7°F1.5°C 96% 4.0 mph NW6.4 kmh NW 10.0 mph16.1 kmh 30.22 in1023.4 mb 0.01 in0.3 mm 0.00 in0.0 mm 0.02 in0.5 mm
02:40 AM 35.8°F2.1°C 34.7°F1.5°C 96% 3.0 mph NW4.8 kmh NW 9.0 mph14.5 kmh 30.22 in1023.4 mb 0.01 in0.3 mm 0.00 in0.0 mm 0.02 in0.5 mm
02:45 AM 35.6°F2.0°C 34.5°F1.4°C 96% 3.0 mph NW4.8 kmh NW 8.0 mph12.9 kmh 30.22 in1023.4 mb 0.01 in0.3 mm 0.00 in0.0 mm 0.02 in0.5 mm
02:50 AM 35.6°F2.0°C 34.5°F1.4°C 96% 3.0 mph NW4.8 kmh NW 8.0 mph12.9 kmh 30.22 in1023.4 mb 0.01 in0.3 mm 0.00 in0.0 mm 0.02 in0.5 mm
02:55 AM 35.4°F1.9°C 34.5°F1.4°C 96% 3.0 mph NW4.8 kmh NW 8.0 mph12.9 kmh 30.22 in1023.4 mb 0.01 in0.3 mm 0.00 in0.0 mm 0.02 in0.5 mm
03:00 AM 35.4°F1.9°C 34.5°F1.4°C 96% 4.0 mph NW6.4 kmh NW 10.0 mph16.1 kmh 30.22 in1023.4 mb 0.00 in0.0 mm 0.00 in0.0 mm 0.02 in0.5 mm
03:05 AM 35.4°F1.9°C 34.5°F1.4°C 96% 4.0 mph NW6.4 kmh NW 10.0 mph16.1 kmh 30.23 in1023.7 mb 0.00 in0.0 mm 0.00 in0.0 mm 0.02 in0.5 mm
03:10 AM 35.6°F2.0°C 34.5°F1.4°C 96% 3.0 mph NW4.8 kmh NW 9.0 mph14.5 kmh 30.23 in1023.7 mb 0.00 in0.0 mm 0.00 in0.0 mm 0.02 in0.5 mm
03:15 AM 35.6°F2.0°C 34.5°F1.4°C 96% 3.0 mph NW4.8 kmh NW 9.0 mph14.5 kmh 30.23 in1023.7 mb 0.00 in0.0 mm 0.00 in0.0 mm 0.02 in0.5 mm
03:20 AM 35.6°F2.0°C 34.5°F1.4°C 96% 3.0 mph NW4.8 kmh NW 7.0 mph11.3 kmh 30.23 in1023.7 mb 0.00 in0.0 mm 0.00 in0.0 mm 0.02 in0.5 mm
03:25 AM 35.6°F2.0°C 34.5°F1.4°C 96% 3.0 mph NW4.8 kmh NW 7.0 mph11.3 kmh 30.23 in1023.7 mb 0.01 in0.3 mm 0.12 in3.0 mm 0.03 in0.8 mm
03:30 AM 35.4°F1.9°C 34.5°F1.4°C 96% 2.0 mph NW3.2 kmh NW 7.0 mph11.3 kmh 30.23 in1023.7 mb 0.01 in0.3 mm 0.00 in0.0 mm 0.03 in0.8 mm
03:35 AM 35.4°F1.9°C 34.5°F1.4°C 96% 1.0 mph NW1.6 kmh NW 7.0 mph11.3 kmh 30.23 in1023.7 mb 0.01 in0.3 mm 0.00 in0.0 mm 0.03 in0.8 mm
03:40 AM 35.4°F1.9°C 34.5°F1.4°C 96% 1.0 mph NW1.6 kmh NW 7.0 mph11.3 kmh 30.23 in1023.7 mb 0.01 in0.3 mm 0.00 in0.0 mm 0.03 in0.8 mm
03:45 AM 35.4°F1.9°C 34.3°F1.3°C 96% 2.0 mph NW3.2 kmh NW 12.0 mph19.3 kmh 30.23 in1023.7 mb 0.01 in0.3 mm 0.00 in0.0 mm 0.03 in0.8 mm
03:50 AM 35.4°F1.9°C 34.5°F1.4°C 96% 2.0 mph NW3.2 kmh NW 12.0 mph19.3 kmh 30.23 in1023.7 mb 0.01 in0.3 mm 0.00 in0.0 mm 0.03 in0.8 mm
03:55 AM 35.4°F1.9°C 34.3°F1.3°C 96% 2.0 mph NW3.2 kmh NW 10.0 mph16.1 kmh 30.23 in1023.7 mb 0.01 in0.3 mm 0.00 in0.0 mm 0.03 in0.8 mm
04:00 AM 35.2°F1.8°C 34.3°F1.3°C 96% 2.0 mph NW3.2 kmh NW 10.0 mph16.1 kmh 30.23 in1023.7 mb 0.01 in0.3 mm 0.00 in0.0 mm 0.03 in0.8 mm
04:05 AM 35.2°F1.8°C 34.3°F1.3°C 96% 2.0 mph NW3.2 kmh NW 8.0 mph12.9 kmh 30.23 in1023.7 mb 0.02 in0.5 mm 0.12 in3.0 mm 0.04 in1.0 mm
04:10 AM 35.2°F1.8°C 34.3°F1.3°C 96% 2.0 mph NW3.2 kmh NW 8.0 mph12.9 kmh 30.23 in1023.7 mb 0.02 in0.5 mm 0.00 in0.0 mm 0.04 in1.0 mm
04:15 AM 35.2°F1.8°C 34.3°F1.3°C 96% 2.0 mph NW3.2 kmh NW 8.0 mph12.9 kmh 30.23 in1023.7 mb 0.02 in0.5 mm 0.00 in0.0 mm 0.04 in1.0 mm
04:20 AM 35.2°F1.8°C 34.3°F1.3°C 96% 2.0 mph NW3.2 kmh NW 6.0 mph9.7 kmh 30.23 in1023.7 mb 0.02 in0.5 mm 0.00 in0.0 mm 0.04 in1.0 mm
04:25 AM 35.2°F1.8°C 34.3°F1.3°C 96% 2.0 mph NW3.2 kmh NW 7.0 mph11.3 kmh 30.23 in1023.7 mb 0.01 in0.3 mm 0.00 in0.0 mm 0.04 in1.0 mm
04:30 AM 35.2°F1.8°C 34.3°F1.3°C 96% 2.0 mph NW3.2 kmh NW 7.0 mph11.3 kmh 30.23 in1023.7 mb 0.01 in0.3 mm 0.00 in0.0 mm 0.04 in1.0 mm
04:35 AM 35.2°F1.8°C 34.3°F1.3°C 96% 2.0 mph NW3.2 kmh NW 12.0 mph19.3 kmh 30.23 in1023.7 mb 0.01 in0.3 mm 0.00 in0.0 mm 0.04 in1.0 mm
04:40 AM 35.2°F1.8°C 34.2°F1.2°C 96% 2.0 mph NW3.2 kmh NW 12.0 mph19.3 kmh 30.23 in1023.7 mb 0.01 in0.3 mm 0.00 in0.0 mm 0.04 in1.0 mm
04:45 AM 35.2°F1.8°C 34.2°F1.2°C 96% 3.0 mph NW4.8 kmh NW 9.0 mph14.5 kmh 30.23 in1023.7 mb 0.01 in0.3 mm 0.00 in0.0 mm 0.04 in1.0 mm
04:50 AM 35.2°F1.8°C 34.2°F1.2°C 96% 3.0 mph NW4.8 kmh NW 9.0 mph14.5 kmh 30.23 in1023.7 mb 0.01 in0.3 mm 0.00 in0.0 mm 0.04 in1.0 mm
04:55 AM 35.2°F1.8°C 34.2°F1.2°C 96% 2.0 mph NW3.2 kmh NW 8.0 mph12.9 kmh 30.24 in1024.0 mb 0.01 in0.3 mm 0.00 in0.0 mm 0.04 in1.0 mm
05:00 AM 35.1°F1.7°C 34.2°F1.2°C 96% 2.0 mph NW3.2 kmh NW 8.0 mph12.9 kmh 30.24 in1024.0 mb 0.01 in0.3 mm 0.00 in0.0 mm 0.04 in1.0 mm
05:05 AM 35.1°F1.7°C 34.2°F1.2°C 96% 3.0 mph NW4.8 kmh NW 9.0 mph14.5 kmh 30.24 in1024.0 mb 0.00 in0.0 mm 0.00 in0.0 mm 0.04 in1.0 mm
05:10 AM 35.1°F1.7°C 34.2°F1.2°C 96% 3.0 mph NW4.8 kmh NW 10.0 mph16.1 kmh 30.24 in1024.0 mb 0.00 in0.0 mm 0.00 in0.0 mm 0.04 in1.0 mm
05:15 AM 35.1°F1.7°C 34.0°F1.1°C 96% 3.0 mph NW4.8 kmh NW 10.0 mph16.1 kmh 30.24 in1024.0 mb 0.01 in0.3 mm 0.12 in3.0 mm 0.05 in1.3 mm
05:20 AM 35.1°F1.7°C 34.0°F1.1°C 96% 3.0 mph NW4.8 kmh NW 9.0 mph14.5 kmh 30.24 in1024.0 mb 0.01 in0.3 mm 0.00 in0.0 mm 0.05 in1.3 mm
05:25 AM 35.1°F1.7°C 34.0°F1.1°C 96% 3.0 mph NW4.8 kmh NW 9.0 mph14.5 kmh 30.24 in1024.0 mb 0.01 in0.3 mm 0.00 in0.0 mm 0.05 in1.3 mm
05:30 AM 34.9°F1.6°C 33.8°F1.0°C 96% 3.0 mph NW4.8 kmh NW 10.0 mph16.1 kmh 30.25 in1024.4 mb 0.01 in0.3 mm 0.00 in0.0 mm 0.05 in1.3 mm
05:35 AM 34.9°F1.6°C 33.8°F1.0°C 96% 3.0 mph NW4.8 kmh NW 10.0 mph16.1 kmh 30.25 in1024.4 mb 0.01 in0.3 mm 0.00 in0.0 mm 0.05 in1.3 mm
05:40 AM 34.9°F1.6°C 33.8°F1.0°C 96% 3.0 mph NW4.8 kmh NW 9.0 mph14.5 kmh 30.25 in1024.4 mb 0.01 in0.3 mm 0.00 in0.0 mm 0.05 in1.3 mm
05:45 AM 35.1°F1.7°C 34.0°F1.1°C 96% 3.0 mph NW4.8 kmh NW 12.0 mph19.3 kmh 30.25 in1024.4 mb 0.01 in0.3 mm 0.00 in0.0 mm 0.05 in1.3 mm
05:50 AM 35.1°F1.7°C 34.2°F1.2°C 96% 5.0 mph NW8.0 kmh NW 12.0 mph19.3 kmh 30.25 in1024.4 mb 0.01 in0.3 mm 0.00 in0.0 mm 0.05 in1.3 mm
05:55 AM 35.2°F1.8°C 34.2°F1.2°C 96% 5.0 mph NW8.0 kmh NW 12.0 mph19.3 kmh 30.26 in1024.7 mb 0.01 in0.3 mm 0.00 in0.0 mm 0.05 in1.3 mm
06:00 AM 35.2°F1.8°C 34.3°F1.3°C 96% 4.0 mph NW6.4 kmh NW 12.0 mph19.3 kmh 30.26 in1024.7 mb 0.01 in0.3 mm 0.00 in0.0 mm 0.05 in1.3 mm
06:05 AM 35.2°F1.8°C 34.3°F1.3°C 96% 5.0 mph NW8.0 kmh NW 12.0 mph19.3 kmh 30.26 in1024.7 mb 0.01 in0.3 mm 0.00 in0.0 mm 0.05 in1.3 mm
06:10 AM 35.2°F1.8°C 34.3°F1.3°C 96% 4.0 mph NW6.4 kmh NW 12.0 mph19.3 kmh 30.26 in1024.7 mb 0.01 in0.3 mm 0.00 in0.0 mm 0.05 in1.3 mm
06:15 AM 35.4°F1.9°C 34.3°F1.3°C 96% 4.0 mph NW6.4 kmh NW 13.0 mph20.9 kmh 30.27 in1025.1 mb 0.01 in0.3 mm 0.00 in0.0 mm 0.06 in1.5 mm
06:20 AM 35.4°F1.9°C 34.3°F1.3°C 96% 4.0 mph NW6.4 kmh NW 13.0 mph20.9 kmh 30.27 in1025.1 mb 0.01 in0.3 mm 0.00 in0.0 mm 0.06 in1.5 mm
06:25 AM 35.4°F1.9°C 34.3°F1.3°C 96% 5.0 mph NW8.0 kmh NW 13.0 mph20.9 kmh 30.27 in1025.1 mb 0.01 in0.3 mm 0.00 in0.0 mm 0.06 in1.5 mm
06:30 AM 35.4°F1.9°C 34.3°F1.3°C 96% 4.0 mph NW6.4 kmh NW 13.0 mph20.9 kmh 30.27 in1025.1 mb 0.01 in0.3 mm 0.00 in0.0 mm 0.06 in1.5 mm
06:35 AM 35.2°F1.8°C 34.3°F1.3°C 96% 3.0 mph NW4.8 kmh NW 8.0 mph12.9 kmh 30.27 in1025.1 mb 0.01 in0.3 mm 0.00 in0.0 mm 0.06 in1.5 mm
06:40 AM 35.4°F1.9°C 34.3°F1.3°C 96% 5.0 mph NW8.0 kmh NW 13.0 mph20.9 kmh 30.27 in1025.1 mb 0.01 in0.3 mm 0.00 in0.0 mm 0.06 in1.5 mm
06:45 AM 35.2°F1.8°C 34.3°F1.3°C 96% 5.0 mph NW8.0 kmh NW 13.0 mph20.9 kmh 30.28 in1025.4 mb 0.01 in0.3 mm 0.00 in0.0 mm 0.06 in1.5 mm
06:50 AM 35.2°F1.8°C 34.3°F1.3°C 96% 5.0 mph NW8.0 kmh NW 13.0 mph20.9 kmh 30.28 in1025.4 mb 0.01 in0.3 mm 0.00 in0.0 mm 0.06 in1.5 mm
06:55 AM 35.4°F1.9°C 34.3°F1.3°C 96% 4.0 mph NW6.4 kmh NW 11.0 mph17.7 kmh 30.28 in1025.4 mb 0.01 in0.3 mm 0.00 in0.0 mm 0.06 in1.5 mm
07:00 AM 35.4°F1.9°C 34.3°F1.3°C 96% 3.0 mph NW4.8 kmh NW 11.0 mph17.7 kmh 30.28 in1025.4 mb 0.01 in0.3 mm 0.00 in0.0 mm 0.06 in1.5 mm
07:05 AM 35.4°F1.9°C 34.3°F1.3°C 96% 4.0 mph NW6.4 kmh NW 12.0 mph19.3 kmh 30.29 in1025.7 mb 0.01 in0.3 mm 0.00 in0.0 mm 0.06 in1.5 mm
07:10 AM 35.4°F1.9°C 34.2°F1.2°C 95% 5.0 mph NW8.0 kmh NW 14.0 mph22.5 kmh 30.29 in1025.7 mb 0.01 in0.3 mm 0.00 in0.0 mm 0.06 in1.5 mm
07:15 AM 35.2°F1.8°C 34.0°F1.1°C 95% 5.0 mph NW8.0 kmh NW 14.0 mph22.5 kmh 30.29 in1025.7 mb 0.00 in0.0 mm 0.00 in0.0 mm 0.06 in1.5 mm
07:20 AM 35.2°F1.8°C 34.0°F1.1°C 95% 5.0 mph NW8.0 kmh NW 12.0 mph19.3 kmh 30.29 in1025.7 mb 0.00 in0.0 mm 0.00 in0.0 mm 0.06 in1.5 mm
07:25 AM 35.2°F1.8°C 34.0°F1.1°C 95% 5.0 mph NW8.0 kmh NW 14.0 mph22.5 kmh 30.30 in1026.1 mb 0.00 in0.0 mm 0.00 in0.0 mm 0.06 in1.5 mm
07:30 AM 35.2°F1.8°C 34.0°F1.1°C 95% 6.0 mph NW9.7 kmh NW 14.0 mph22.5 kmh 30.30 in1026.1 mb 0.00 in0.0 mm 0.00 in0.0 mm 0.06 in1.5 mm
07:35 AM 35.2°F1.8°C 34.0°F1.1°C 95% 6.0 mph NW9.7 kmh NW 14.0 mph22.5 kmh 30.30 in1026.1 mb 0.00 in0.0 mm 0.00 in0.0 mm 0.06 in1.5 mm
07:40 AM 35.2°F1.8°C 33.6°F0.9°C 94% 5.0 mph NW8.0 kmh NW 14.0 mph22.5 kmh 30.30 in1026.1 mb 0.00 in0.0 mm 0.00 in0.0 mm 0.06 in1.5 mm
07:45 AM 35.2°F1.8°C 33.6°F0.9°C 94% 4.0 mph NW6.4 kmh NW 12.0 mph19.3 kmh 30.31 in1026.4 mb 0.00 in0.0 mm 0.00 in0.0 mm 0.06 in1.5 mm
07:50 AM 35.1°F1.7°C 33.6°F0.9°C 94% 5.0 mph NW8.0 kmh NW 11.0 mph17.7 kmh 30.31 in1026.4 mb 0.00 in0.0 mm 0.00 in0.0 mm 0.06 in1.5 mm
07:55 AM 35.1°F1.7°C 33.6°F0.9°C 94% 4.0 mph NW6.4 kmh NW 11.0 mph17.7 kmh 30.31 in1026.4 mb 0.00 in0.0 mm 0.00 in0.0 mm 0.06 in1.5 mm
08:00 AM 35.1°F1.7°C 33.4°F0.8°C 94% 3.0 mph NW4.8 kmh NW 8.0 mph12.9 kmh 30.31 in1026.4 mb 0.00 in0.0 mm 0.00 in0.0 mm 0.06 in1.5 mm
08:05 AM 35.1°F1.7°C 33.4°F0.8°C 94% 3.0 mph NW4.8 kmh NW 9.0 mph14.5 kmh 30.31 in1026.4 mb 0.00 in0.0 mm 0.00 in0.0 mm 0.06 in1.5 mm
08:10 AM 34.9°F1.6°C 33.3°F0.7°C 94% 3.0 mph NW4.8 kmh NW 11.0 mph17.7 kmh 30.31 in1026.4 mb 0.00 in0.0 mm 0.00 in0.0 mm 0.06 in1.5 mm
08:15 AM 34.9°F1.6°C 33.3°F0.7°C 94% 4.0 mph NW6.4 kmh NW 11.0 mph17.7 kmh 30.32 in1026.8 mb 0.00 in0.0 mm 0.00 in0.0 mm 0.06 in1.5 mm
08:20 AM 34.9°F1.6°C 33.3°F0.7°C 94% 3.0 mph NW4.8 kmh NW 9.0 mph14.5 kmh 30.32 in1026.8 mb 0.00 in0.0 mm 0.00 in0.0 mm 0.06 in1.5 mm
08:25 AM 34.7°F1.5°C 33.1°F0.6°C 94% 3.0 mph NW4.8 kmh NW 9.0 mph14.5 kmh 30.32 in1026.8 mb 0.00 in0.0 mm 0.00 in0.0 mm 0.06 in1.5 mm
08:30 AM 34.7°F1.5°C 33.4°F0.8°C 95% 3.0 mph NW4.8 kmh NW 8.0 mph12.9 kmh 30.32 in1026.8 mb 0.00 in0.0 mm 0.00 in0.0 mm 0.06 in1.5 mm
08:35 AM 34.7°F1.5°C 33.4°F0.8°C 95% 4.0 mph NW6.4 kmh NW 9.0 mph14.5 kmh 30.32 in1026.8 mb 0.00 in0.0 mm 0.00 in0.0 mm 0.06 in1.5 mm
08:40 AM 34.7°F1.5°C 33.4°F0.8°C 95% 4.0 mph NW6.4 kmh NW 10.0 mph16.1 kmh 30.32 in1026.8 mb 0.00 in0.0 mm 0.00 in0.0 mm 0.06 in1.5 mm
08:45 AM 34.9°F1.6°C 33.4°F0.8°C 95% 4.0 mph NW6.4 kmh NW 10.0 mph16.1 kmh 30.33 in1027.1 mb 0.00 in0.0 mm 0.00 in0.0 mm 0.06 in1.5 mm
08:50 AM 34.7°F1.5°C 33.4°F0.8°C 95% 4.0 mph NW6.4 kmh NW 9.0 mph14.5 kmh 30.33 in1027.1 mb 0.00 in0.0 mm 0.00 in0.0 mm 0.06 in1.5 mm
08:55 AM 34.9°F1.6°C 33.4°F0.8°C 95% 4.0 mph NW6.4 kmh NW 10.0 mph16.1 kmh 30.33 in1027.1 mb 0.00 in0.0 mm 0.00 in0.0 mm 0.06 in1.5 mm
09:00 AM 34.9°F1.6°C 33.6°F0.9°C 95% 3.0 mph NW4.8 kmh NW 10.0 mph16.1 kmh 30.33 in1027.1 mb 0.00 in0.0 mm 0.00 in0.0 mm 0.06 in1.5 mm
09:05 AM 34.9°F1.6°C 33.6°F0.9°C 95% 2.0 mph NW3.2 kmh NW 9.0 mph14.5 kmh 30.33 in1027.1 mb 0.00 in0.0 mm 0.00 in0.0 mm 0.06 in1.5 mm
09:10 AM 34.9°F1.6°C 33.6°F0.9°C 95% 2.0 mph NW3.2 kmh NW 9.0 mph14.5 kmh 30.33 in1027.1 mb 0.00 in0.0 mm 0.00 in0.0 mm 0.06 in1.5 mm
09:15 AM 35.1°F1.7°C 33.8°F1.0°C 95% 2.0 mph NW3.2 kmh NW 9.0 mph14.5 kmh 30.33 in1027.1 mb 0.00 in0.0 mm 0.00 in0.0 mm 0.06 in1.5 mm
09:20 AM 35.1°F1.7°C 33.8°F1.0°C 95% 2.0 mph NW3.2 kmh NW 9.0 mph14.5 kmh 30.34 in1027.4 mb 0.00 in0.0 mm 0.00 in0.0 mm 0.06 in1.5 mm
09:25 AM 35.1°F1.7°C 33.8°F1.0°C 95% 2.0 mph NW3.2 kmh NW 9.0 mph14.5 kmh 30.34 in1027.4 mb 0.00 in0.0 mm 0.00 in0.0 mm 0.06 in1.5 mm
09:30 AM 35.1°F1.7°C 33.8°F1.0°C 95% 2.0 mph NW3.2 kmh NW 8.0 mph12.9 kmh 30.34 in1027.4 mb 0.00 in0.0 mm 0.00 in0.0 mm 0.06 in1.5 mm
09:35 AM 35.1°F1.7°C 33.4°F0.8°C 94% 2.0 mph NW3.2 kmh NW 9.0 mph14.5 kmh 30.34 in1027.4 mb 0.00 in0.0 mm 0.00 in0.0 mm 0.06 in1.5 mm
09:40 AM 35.1°F1.7°C 33.6°F0.9°C 94% 3.0 mph NW4.8 kmh NW 9.0 mph14.5 kmh 30.34 in1027.4 mb 0.00 in0.0 mm 0.00 in0.0 mm 0.06 in1.5 mm
09:45 AM 35.1°F1.7°C 33.6°F0.9°C 94% 2.0 mph NW3.2 kmh NW 7.0 mph11.3 kmh 30.34 in1027.4 mb 0.00 in0.0 mm 0.00 in0.0 mm 0.06 in1.5 mm
09:50 AM 35.1°F1.7°C 33.6°F0.9°C 94% 2.0 mph NW3.2 kmh NW 9.0 mph14.5 kmh 30.34 in1027.4 mb 0.00 in0.0 mm 0.00 in0.0 mm 0.06 in1.5 mm
09:55 AM 35.1°F1.7°C 33.6°F0.9°C 94% 2.0 mph NW3.2 kmh NW 9.0 mph14.5 kmh 30.34 in1027.4 mb 0.00 in0.0 mm 0.00 in0.0 mm 0.06 in1.5 mm
10:00 AM 35.2°F1.8°C 33.6°F0.9°C 94% 2.0 mph NW3.2 kmh NW 9.0 mph14.5 kmh 30.35 in1027.8 mb 0.00 in0.0 mm 0.00 in0.0 mm 0.06 in1.5 mm
10:05 AM 35.2°F1.8°C 33.6°F0.9°C 94% 2.0 mph NW3.2 kmh NW 9.0 mph14.5 kmh 30.35 in1027.8 mb 0.00 in0.0 mm 0.00 in0.0 mm 0.06 in1.5 mm
10:10 AM 35.2°F1.8°C 33.6°F0.9°C 94% 2.0 mph NW3.2 kmh NW 10.0 mph16.1 kmh 30.35 in1027.8 mb 0.00 in0.0 mm 0.00 in0.0 mm 0.06 in1.5 mm
10:15 AM 35.2°F1.8°C 33.6°F0.9°C 94% 3.0 mph NW4.8 kmh NW 11.0 mph17.7 kmh 30.35 in1027.8 mb 0.00 in0.0 mm 0.00 in0.0 mm 0.06 in1.5 mm
10:20 AM 35.2°F1.8°C 33.4°F0.8°C 93% 3.0 mph NW4.8 kmh NW 11.0 mph17.7 kmh 30.35 in1027.8 mb 0.00 in0.0 mm 0.00 in0.0 mm 0.06 in1.5 mm
10:25 AM 35.2°F1.8°C 33.4°F0.8°C 93% 3.0 mph NW4.8 kmh NW 8.0 mph12.9 kmh 30.35 in1027.8 mb 0.00 in0.0 mm 0.00 in0.0 mm 0.06 in1.5 mm
10:30 AM 35.2°F1.8°C 33.4°F0.8°C 93% 3.0 mph NW4.8 kmh NW 8.0 mph12.9 kmh 30.36 in1028.1 mb 0.00 in0.0 mm 0.00 in0.0 mm 0.06 in1.5 mm
10:35 AM 35.2°F1.8°C 33.4°F0.8°C 93% 3.0 mph NW4.8 kmh NW 9.0 mph14.5 kmh 30.36 in1028.1 mb 0.00 in0.0 mm 0.00 in0.0 mm 0.06 in1.5 mm
10:40 AM 35.2°F1.8°C 33.4°F0.8°C 93% 3.0 mph NW4.8 kmh NW 9.0 mph14.5 kmh 30.36 in1028.1 mb 0.00 in0.0 mm 0.00 in0.0 mm 0.06 in1.5 mm
10:45 AM 35.2°F1.8°C 33.4°F0.8°C 93% 2.0 mph NW3.2 kmh NW 9.0 mph14.5 kmh 30.36 in1028.1 mb 0.00 in0.0 mm 0.00 in0.0 mm 0.06 in1.5 mm
10:50 AM 35.2°F1.8°C 33.4°F0.8°C 93% 2.0 mph NW3.2 kmh NW 7.0 mph11.3 kmh 30.36 in1028.1 mb 0.00 in0.0 mm 0.00 in0.0 mm 0.06 in1.5 mm
10:55 AM 35.2°F1.8°C 33.4°F0.8°C 93% 2.0 mph NW3.2 kmh NW 8.0 mph12.9 kmh 30.36 in1028.1 mb 0.00 in0.0 mm 0.00 in0.0 mm 0.06 in1.5 mm
11:00 AM 35.2°F1.8°C 33.4°F0.8°C 93% 2.0 mph NW3.2 kmh NW 8.0 mph12.9 kmh 30.36 in1028.1 mb 0.00 in0.0 mm 0.00 in0.0 mm 0.06 in1.5 mm
11:05 AM 35.2°F1.8°C 33.3°F0.7°C 92% 3.0 mph NW4.8 kmh NW 9.0 mph14.5 kmh 30.36 in1028.1 mb 0.00 in0.0 mm 0.00 in0.0 mm 0.06 in1.5 mm
11:10 AM 35.4°F1.9°C 33.3°F0.7°C 92% 2.0 mph NW3.2 kmh NW 9.0 mph14.5 kmh 30.36 in1028.1 mb 0.00 in0.0 mm 0.00 in0.0 mm 0.06 in1.5 mm
11:15 AM 35.4°F1.9°C 33.4°F0.8°C 92% 2.0 mph NW3.2 kmh NW 6.0 mph9.7 kmh 30.36 in1028.1 mb 0.00 in0.0 mm 0.00 in0.0 mm 0.06 in1.5 mm
11:20 AM 35.4°F1.9°C 33.4°F0.8°C 92% 2.0 mph NW3.2 kmh NW 8.0 mph12.9 kmh 30.36 in1028.1 mb 0.00 in0.0 mm 0.00 in0.0 mm 0.06 in1.5 mm
11:25 AM 35.4°F1.9°C 33.4°F0.8°C 92% 2.0 mph NW3.2 kmh NW 8.0 mph12.9 kmh 30.36 in1028.1 mb 0.00 in0.0 mm 0.00 in0.0 mm 0.06 in1.5 mm
11:30 AM 35.4°F1.9°C 33.4°F0.8°C 92% 2.0 mph NW3.2 kmh NW 7.0 mph11.3 kmh 30.35 in1027.8 mb 0.00 in0.0 mm 0.00 in0.0 mm 0.06 in1.5 mm
11:35 AM 35.6°F2.0°C 33.4°F0.8°C 92% 1.0 mph NW1.6 kmh NW 7.0 mph11.3 kmh 30.36 in1028.1 mb 0.00 in0.0 mm 0.00 in0.0 mm 0.06 in1.5 mm
11:40 AM 35.6°F2.0°C 33.4°F0.8°C 92% 1.0 mph NW1.6 kmh NW 6.0 mph9.7 kmh 30.35 in1027.8 mb 0.00 in0.0 mm 0.00 in0.0 mm 0.06 in1.5 mm
11:45 AM 35.6°F2.0°C 33.4°F0.8°C 92% 2.0 mph NW3.2 kmh NW 6.0 mph9.7 kmh 30.35 in1027.8 mb 0.00 in0.0 mm 0.00 in0.0 mm 0.06 in1.5 mm
11:50 AM 35.8°F2.1°C 33.6°F0.9°C 92% 2.0 mph NW3.2 kmh NW 6.0 mph9.7 kmh 30.35 in1027.8 mb 0.00 in0.0 mm 0.00 in0.0 mm 0.06 in1.5 mm
11:55 AM 35.8°F2.1°C 33.6°F0.9°C 92% 1.0 mph NW1.6 kmh NW 8.0 mph12.9 kmh 30.35 in1027.8 mb 0.00 in0.0 mm 0.00 in0.0 mm 0.06 in1.5 mm
12:00 PM 35.8°F2.1°C 33.4°F0.8°C 91% 1.0 mph NW1.6 kmh NW 8.0 mph12.9 kmh 30.35 in1027.8 mb 0.00 in0.0 mm 0.00 in0.0 mm 0.06 in1.5 mm
12:05 PM 36.0°F2.2°C 33.4°F0.8°C 91% 1.0 mph NW1.6 kmh NW 6.0 mph9.7 kmh 30.35 in1027.8 mb 0.00 in0.0 mm 0.00 in0.0 mm 0.06 in1.5 mm
12:10 PM 36.0°F2.2°C 33.6°F0.9°C 91% 1.0 mph NW1.6 kmh NW 6.0 mph9.7 kmh 30.35 in1027.8 mb 0.00 in0.0 mm 0.00 in0.0 mm 0.06 in1.5 mm
12:15 PM 36.1°F2.3°C 33.8°F1.0°C 91% 1.0 mph NW1.6 kmh NW 6.0 mph9.7 kmh 30.35 in1027.8 mb 0.00 in0.0 mm 0.00 in0.0 mm 0.06 in1.5 mm
12:20 PM 36.1°F2.3°C 33.8°F1.0°C 91% 1.0 mph NW1.6 kmh NW 6.0 mph9.7 kmh 30.35 in1027.8 mb 0.00 in0.0 mm 0.00 in0.0 mm 0.06 in1.5 mm
12:25 PM 36.0°F2.2°C 33.6°F0.9°C 91% 2.0 mph NW3.2 kmh NW 9.0 mph14.5 kmh 30.35 in1027.8 mb 0.00 in0.0 mm 0.00 in0.0 mm 0.06 in1.5 mm
12:30 PM 36.1°F2.3°C 33.8°F1.0°C 91% 3.0 mph NW4.8 kmh NW 9.0 mph14.5 kmh 30.35 in1027.8 mb 0.00 in0.0 mm 0.00 in0.0 mm 0.06 in1.5 mm
12:35 PM 36.1°F2.3°C 33.8°F1.0°C 91% 2.0 mph NW3.2 kmh NW 7.0 mph11.3 kmh 30.35 in1027.8 mb 0.00 in0.0 mm 0.00 in0.0 mm 0.06 in1.5 mm
12:40 PM 36.1°F2.3°C 33.6°F0.9°C 90% 2.0 mph NW3.2 kmh NW 6.0 mph9.7 kmh 30.35 in1027.8 mb 0.00 in0.0 mm 0.00 in0.0 mm 0.06 in1.5 mm
12:45 PM 36.1°F2.3°C 33.6°F0.9°C 90% 2.0 mph NW3.2 kmh NW 7.0 mph11.3 kmh 30.36 in1028.1 mb 0.00 in0.0 mm 0.00 in0.0 mm 0.06 in1.5 mm
12:50 PM 36.3°F2.4°C 33.6°F0.9°C 90% 2.0 mph NW3.2 kmh NW 7.0 mph11.3 kmh 30.36 in1028.1 mb 0.00 in0.0 mm 0.00 in0.0 mm 0.06 in1.5 mm
12:55 PM 36.1°F2.3°C 33.6°F0.9°C 90% 1.0 mph NW1.6 kmh NW 7.0 mph11.3 kmh 30.36 in1028.1 mb 0.00 in0.0 mm 0.00 in0.0 mm 0.06 in1.5 mm
01:00 PM 36.3°F2.4°C 33.6°F0.9°C 90% 2.0 mph NW3.2 kmh NW 11.0 mph17.7 kmh 30.36 in1028.1 mb 0.00 in0.0 mm 0.00 in0.0 mm 0.06 in1.5 mm
01:05 PM 36.3°F2.4°C 33.6°F0.9°C 90% 1.0 mph NW1.6 kmh NW 11.0 mph17.7 kmh 30.36 in1028.1 mb 0.00 in0.0 mm 0.00 in0.0 mm 0.06 in1.5 mm
01:10 PM 36.1°F2.3°C 33.6°F0.9°C 90% 2.0 mph NW3.2 kmh NW 6.0 mph9.7 kmh 30.36 in1028.1 mb 0.00 in0.0 mm 0.00 in0.0 mm 0.06 in1.5 mm
01:15 PM 36.1°F2.3°C 33.6°F0.9°C 90% 2.0 mph NW3.2 kmh NW 7.0 mph11.3 kmh 30.36 in1028.1 mb 0.00 in0.0 mm 0.00 in0.0 mm 0.06 in1.5 mm
01:20 PM 36.1°F2.3°C 33.6°F0.9°C 90% 2.0 mph NW3.2 kmh NW 7.0 mph11.3 kmh 30.36 in1028.1 mb 0.00 in0.0 mm 0.00 in0.0 mm 0.06 in1.5 mm
01:25 PM 36.1°F2.3°C 33.6°F0.9°C 90% 2.0 mph NW3.2 kmh NW 8.0 mph12.9 kmh 30.36 in1028.1 mb 0.00 in0.0 mm 0.00 in0.0 mm 0.06 in1.5 mm
01:30 PM 36.1°F2.3°C 33.6°F0.9°C 90% 2.0 mph NW3.2 kmh NW 8.0 mph12.9 kmh 30.36 in1028.1 mb 0.00 in0.0 mm 0.00 in0.0 mm 0.06 in1.5 mm
01:35 PM 36.1°F2.3°C 33.6°F0.9°C 90% 2.0 mph NW3.2 kmh NW 9.0 mph14.5 kmh 30.37 in1028.4 mb 0.00 in0.0 mm 0.00 in0.0 mm 0.06 in1.5 mm
01:40 PM 36.1°F2.3°C 33.4°F0.8°C 90% 3.0 mph NW4.8 kmh NW 9.0 mph14.5 kmh 30.37 in1028.4 mb 0.00 in0.0 mm 0.00 in0.0 mm 0.06 in1.5 mm
01:45 PM 36.1°F2.3°C 33.4°F0.8°C 90% 3.0 mph NW4.8 kmh NW 12.0 mph19.3 kmh 30.37 in1028.4 mb 0.00 in0.0 mm 0.00 in0.0 mm 0.06 in1.5 mm
01:50 PM 36.1°F2.3°C 33.4°F0.8°C 90% 3.0 mph NW4.8 kmh NW 12.0 mph19.3 kmh 30.37 in1028.4 mb 0.00 in0.0 mm 0.00 in0.0 mm 0.06 in1.5 mm
01:55 PM 36.1°F2.3°C 33.4°F0.8°C 90% 2.0 mph NW3.2 kmh NW 7.0 mph11.3 kmh 30.37 in1028.4 mb 0.00 in0.0 mm 0.00 in0.0 mm 0.06 in1.5 mm
02:00 PM 36.0°F2.2°C 33.4°F0.8°C 90% 2.0 mph NW3.2 kmh NW 8.0 mph12.9 kmh 30.37 in1028.4 mb 0.00 in0.0 mm 0.00 in0.0 mm 0.06 in1.5 mm
02:05 PM 36.0°F2.2°C 33.4°F0.8°C 90% 2.0 mph NW3.2 kmh NW 11.0 mph17.7 kmh 30.37 in1028.4 mb 0.00 in0.0 mm 0.00 in0.0 mm 0.06 in1.5 mm
02:10 PM 36.0°F2.2°C 33.4°F0.8°C 90% 2.0 mph NW3.2 kmh NW 13.0 mph20.9 kmh 30.37 in1028.4 mb 0.00 in0.0 mm 0.00 in0.0 mm 0.06 in1.5 mm
02:15 PM 36.0°F2.2°C 33.4°F0.8°C 90% 3.0 mph NW4.8 kmh NW 13.0 mph20.9 kmh 30.37 in1028.4 mb 0.00 in0.0 mm 0.00 in0.0 mm 0.06 in1.5 mm
02:20 PM 36.0°F2.2°C 33.4°F0.8°C 90% 2.0 mph NW3.2 kmh NW 6.0 mph9.7 kmh 30.38 in1028.8 mb 0.00 in0.0 mm 0.00 in0.0 mm 0.06 in1.5 mm
02:25 PM 36.0°F2.2°C 33.6°F0.9°C 91% 1.0 mph NW1.6 kmh NW 6.0 mph9.7 kmh 30.38 in1028.8 mb 0.00 in0.0 mm 0.00 in0.0 mm 0.06 in1.5 mm
02:30 PM 36.0°F2.2°C 33.4°F0.8°C 91% 1.0 mph NW1.6 kmh NW 6.0 mph9.7 kmh 30.38 in1028.8 mb 0.00 in0.0 mm 0.00 in0.0 mm 0.06 in1.5 mm
02:35 PM 35.8°F2.1°C 33.4°F0.8°C 91% 2.0 mph NW3.2 kmh NW 7.0 mph11.3 kmh 30.38 in1028.8 mb 0.00 in0.0 mm 0.00 in0.0 mm 0.06 in1.5 mm
02:40 PM 35.8°F2.1°C 33.4°F0.8°C 91% 1.0 mph NW1.6 kmh NW 7.0 mph11.3 kmh 30.38 in1028.8 mb 0.00 in0.0 mm 0.00 in0.0 mm 0.06 in1.5 mm
02:45 PM 35.8°F2.1°C 33.4°F0.8°C 91% 1.0 mph NW1.6 kmh NW 6.0 mph9.7 kmh 30.38 in1028.8 mb 0.00 in0.0 mm 0.00 in0.0 mm 0.06 in1.5 mm
02:50 PM 35.8°F2.1°C 33.3°F0.7°C 91% 1.0 mph NW1.6 kmh NW 6.0 mph9.7 kmh 30.38 in1028.8 mb 0.00 in0.0 mm 0.00 in0.0 mm 0.06 in1.5 mm
02:55 PM 35.6°F2.0°C 33.3°F0.7°C 91% 1.0 mph NW1.6 kmh NW 7.0 mph11.3 kmh 30.38 in1028.8 mb 0.00 in0.0 mm 0.00 in0.0 mm 0.06 in1.5 mm
03:00 PM 35.6°F2.0°C 33.3°F0.7°C 91% 1.0 mph NW1.6 kmh NW 7.0 mph11.3 kmh 30.39 in1029.1 mb 0.00 in0.0 mm 0.00 in0.0 mm 0.06 in1.5 mm
03:05 PM 35.6°F2.0°C 33.3°F0.7°C 91% 1.0 mph NW1.6 kmh NW 4.0 mph6.4 kmh 30.39 in1029.1 mb 0.00 in0.0 mm 0.00 in0.0 mm 0.06 in1.5 mm
03:10 PM 35.6°F2.0°C 33.3°F0.7°C 91% 1.0 mph NW1.6 kmh NW 5.0 mph8.0 kmh 30.39 in1029.1 mb 0.00 in0.0 mm 0.00 in0.0 mm 0.06 in1.5 mm
03:15 PM 35.4°F1.9°C 33.1°F0.6°C 91% 1.0 mph NW1.6 kmh NW 6.0 mph9.7 kmh 30.39 in1029.1 mb 0.00 in0.0 mm 0.00 in0.0 mm 0.06 in1.5 mm
03:20 PM 35.4°F1.9°C 33.1°F0.6°C 91% 2.0 mph NW3.2 kmh NW 6.0 mph9.7 kmh 30.39 in1029.1 mb 0.00 in0.0 mm 0.00 in0.0 mm 0.06 in1.5 mm
03:25 PM 35.4°F1.9°C 33.1°F0.6°C 91% 1.0 mph NW1.6 kmh NW 6.0 mph9.7 kmh 30.39 in1029.1 mb 0.00 in0.0 mm 0.00 in0.0 mm 0.06 in1.5 mm
03:30 PM 35.4°F1.9°C 33.1°F0.6°C 91% 1.0 mph NW1.6 kmh NW 6.0 mph9.7 kmh 30.39 in1029.1 mb 0.00 in0.0 mm 0.00 in0.0 mm 0.06 in1.5 mm
03:35 PM 35.4°F1.9°C 33.1°F0.6°C 91% 1.0 mph NW1.6 kmh NW 8.0 mph12.9 kmh 30.39 in1029.1 mb 0.00 in0.0 mm 0.00 in0.0 mm 0.06 in1.5 mm
03:40 PM 35.4°F1.9°C 33.1°F0.6°C 91% 1.0 mph NW1.6 kmh NW 8.0 mph12.9 kmh 30.39 in1029.1 mb 0.00 in0.0 mm 0.00 in0.0 mm 0.06 in1.5 mm
03:45 PM 35.2°F1.8°C 32.9°F0.5°C 91% 2.0 mph NW3.2 kmh NW 5.0 mph8.0 kmh 30.39 in1029.1 mb 0.00 in0.0 mm 0.00 in0.0 mm 0.06 in1.5 mm
03:50 PM 35.2°F1.8°C 32.9°F0.5°C 91% 1.0 mph NW1.6 kmh NW 5.0 mph8.0 kmh 30.39 in1029.1 mb 0.00 in0.0 mm 0.00 in0.0 mm 0.06 in1.5 mm
03:55 PM 35.2°F1.8°C 32.9°F0.5°C 91% 1.0 mph NW1.6 kmh NW 5.0 mph8.0 kmh 30.39 in1029.1 mb 0.00 in0.0 mm 0.00 in0.0 mm 0.06 in1.5 mm
04:00 PM 35.2°F1.8°C 32.9°F0.5°C 91% 1.0 mph NW1.6 kmh NW 5.0 mph8.0 kmh 30.39 in1029.1 mb 0.00 in0.0 mm 0.00 in0.0 mm 0.06 in1.5 mm
04:05 PM 35.2°F1.8°C 32.9°F0.5°C 91% 1.0 mph NW1.6 kmh NW 5.0 mph8.0 kmh 30.40 in1029.5 mb 0.00 in0.0 mm 0.00 in0.0 mm 0.06 in1.5 mm
04:10 PM 35.2°F1.8°C 32.9°F0.5°C 91% 1.0 mph NW1.6 kmh NW 5.0 mph8.0 kmh 30.40 in1029.5 mb 0.00 in0.0 mm 0.00 in0.0 mm 0.06 in1.5 mm
04:15 PM 35.2°F1.8°C 32.9°F0.5°C 91% 1.0 mph NW1.6 kmh NW 4.0 mph6.4 kmh 30.40 in1029.5 mb 0.00 in0.0 mm 0.00 in0.0 mm 0.06 in1.5 mm
04:20 PM 35.2°F1.8°C 32.9°F0.5°C 91% 1.0 mph NW1.6 kmh NW 4.0 mph6.4 kmh 30.40 in1029.5 mb 0.00 in0.0 mm 0.00 in0.0 mm 0.06 in1.5 mm
04:25 PM 35.2°F1.8°C 32.9°F0.5°C 91% 1.0 mph NW1.6 kmh NW 5.0 mph8.0 kmh 30.40 in1029.5 mb 0.00 in0.0 mm 0.00 in0.0 mm 0.06 in1.5 mm
04:30 PM 35.2°F1.8°C 32.9°F0.5°C 91% 1.0 mph NW1.6 kmh NW 5.0 mph8.0 kmh 30.40 in1029.5 mb 0.00 in0.0 mm 0.00 in0.0 mm 0.06 in1.5 mm
04:35 PM 35.1°F1.7°C 32.7°F0.4°C 91% 1.0 mph NW1.6 kmh NW 4.0 mph6.4 kmh 30.40 in1029.5 mb 0.00 in0.0 mm 0.00 in0.0 mm 0.06 in1.5 mm
04:40 PM 34.9°F1.6°C 32.5°F0.3°C 91% 1.0 mph NW1.6 kmh NW 5.0 mph8.0 kmh 30.40 in1029.5 mb 0.00 in0.0 mm 0.00 in0.0 mm 0.06 in1.5 mm
04:45 PM 34.9°F1.6°C 32.9°F0.5°C 92% 2.0 mph NW3.2 kmh NW 6.0 mph9.7 kmh 30.40 in1029.5 mb 0.00 in0.0 mm 0.00 in0.0 mm 0.06 in1.5 mm
04:50 PM 34.9°F1.6°C 32.7°F0.4°C 92% 1.0 mph NW1.6 kmh NW 6.0 mph9.7 kmh 30.40 in1029.5 mb 0.00 in0.0 mm 0.00 in0.0 mm 0.06 in1.5 mm
04:55 PM 34.9°F1.6°C 32.7°F0.4°C 92% 1.0 mph NW1.6 kmh NW 4.0 mph6.4 kmh 30.40 in1029.5 mb 0.00 in0.0 mm 0.00 in0.0 mm 0.06 in1.5 mm
05:00 PM 34.7°F1.5°C 32.5°F0.3°C 92% Calm Calm 4.0 mph6.4 kmh 30.40 in1029.5 mb 0.00 in0.0 mm 0.00 in0.0 mm 0.06 in1.5 mm
05:05 PM 34.7°F1.5°C 32.5°F0.3°C 92% 1.0 mph NW1.6 kmh NW 5.0 mph8.0 kmh 30.41 in1029.8 mb 0.00 in0.0 mm 0.00 in0.0 mm 0.06 in1.5 mm
05:10 PM 34.7°F1.5°C 32.5°F0.3°C 92% 1.0 mph NW1.6 kmh NW 5.0 mph8.0 kmh 30.41 in1029.8 mb 0.00 in0.0 mm 0.00 in0.0 mm 0.06 in1.5 mm
05:15 PM 34.7°F1.5°C 32.5°F0.3°C 92% 1.0 mph NW1.6 kmh NW 4.0 mph6.4 kmh 30.41 in1029.8 mb 0.00 in0.0 mm 0.00 in0.0 mm 0.06 in1.5 mm
05:20 PM 34.5°F1.4°C 32.7°F0.4°C 93% 1.0 mph NW1.6 kmh NW 5.0 mph8.0 kmh 30.41 in1029.8 mb 0.00 in0.0 mm 0.00 in0.0 mm 0.06 in1.5 mm
05:25 PM 34.5°F1.4°C 32.7°F0.4°C 93% 1.0 mph NW1.6 kmh NW 5.0 mph8.0 kmh 30.41 in1029.8 mb 0.00 in0.0 mm 0.00 in0.0 mm 0.06 in1.5 mm
05:30 PM 34.7°F1.5°C 32.9°F0.5°C 93% 1.0 mph NW1.6 kmh NW 5.0 mph8.0 kmh 30.41 in1029.8 mb 0.00 in0.0 mm 0.00 in0.0 mm 0.06 in1.5 mm
05:35 PM 34.7°F1.5°C 32.9°F0.5°C 93% 1.0 mph NW1.6 kmh NW 5.0 mph8.0 kmh 30.41 in1029.8 mb 0.00 in0.0 mm 0.00 in0.0 mm 0.06 in1.5 mm
05:40 PM 34.5°F1.4°C 32.7°F0.4°C 93% 1.0 mph NW1.6 kmh NW 5.0 mph8.0 kmh 30.41 in1029.8 mb 0.00 in0.0 mm 0.00 in0.0 mm 0.06 in1.5 mm
05:45 PM 34.5°F1.4°C 32.7°F0.4°C 93% 1.0 mph NW1.6 kmh NW 5.0 mph8.0 kmh 30.41 in1029.8 mb 0.00 in0.0 mm 0.00 in0.0 mm 0.06 in1.5 mm
05:50 PM 34.5°F1.4°C 32.7°F0.4°C 93% Calm Calm 3.0 mph4.8 kmh 30.41 in1029.8 mb 0.00 in0.0 mm 0.00 in0.0 mm 0.06 in1.5 mm
05:55 PM 34.5°F1.4°C 32.7°F0.4°C 93% 1.0 mph NW1.6 kmh NW 5.0 mph8.0 kmh 30.41 in1029.8 mb 0.00 in0.0 mm 0.00 in0.0 mm 0.06 in1.5 mm
06:00 PM 34.3°F1.3°C 32.5°F0.3°C 93% 1.0 mph NW1.6 kmh NW 5.0 mph8.0 kmh 30.41 in1029.8 mb 0.00 in0.0 mm 0.00 in0.0 mm 0.06 in1.5 mm
06:05 PM 34.3°F1.3°C 32.5°F0.3°C 93% 1.0 mph NW1.6 kmh NW 3.0 mph4.8 kmh 30.42 in1030.1 mb 0.00 in0.0 mm 0.00 in0.0 mm 0.06 in1.5 mm
06:10 PM 34.2°F1.2°C 32.4°F0.2°C 93% 1.0 mph NW1.6 kmh NW 4.0 mph6.4 kmh 30.41 in1029.8 mb 0.00 in0.0 mm 0.00 in0.0 mm 0.06 in1.5 mm
06:15 PM 34.2°F1.2°C 32.4°F0.2°C 93% 1.0 mph NW1.6 kmh NW 4.0 mph6.4 kmh 30.42 in1030.1 mb 0.00 in0.0 mm 0.00 in0.0 mm 0.06 in1.5 mm
06:20 PM 34.0°F1.1°C 32.2°F0.1°C 93% 1.0 mph NW1.6 kmh NW 5.0 mph8.0 kmh 30.41 in1029.8 mb 0.00 in0.0 mm 0.00 in0.0 mm 0.06 in1.5 mm
06:25 PM 34.0°F1.1°C 32.2°F0.1°C 93% Calm Calm 5.0 mph8.0 kmh 30.41 in1029.8 mb 0.00 in0.0 mm 0.00 in0.0 mm 0.06 in1.5 mm
06:30 PM 34.0°F1.1°C 32.2°F0.1°C 93% Calm Calm 3.0 mph4.8 kmh 30.42 in1030.1 mb 0.00 in0.0 mm 0.00 in0.0 mm 0.06 in1.5 mm
06:35 PM 34.0°F1.1°C 32.2°F0.1°C 93% Calm Calm 3.0 mph4.8 kmh 30.42 in1030.1 mb 0.00 in0.0 mm 0.00 in0.0 mm 0.06 in1.5 mm
06:40 PM 34.0°F1.1°C 32.2°F0.1°C 93% Calm Calm 2.0 mph3.2 kmh 30.42 in1030.1 mb 0.00 in0.0 mm 0.00 in0.0 mm 0.06 in1.5 mm
06:45 PM 34.0°F1.1°C 32.2°F0.1°C 93% Calm Calm 2.0 mph3.2 kmh 30.42 in1030.1 mb 0.00 in0.0 mm 0.00 in0.0 mm 0.06 in1.5 mm
06:50 PM 34.0°F1.1°C 32.2°F0.1°C 93% Calm Calm 5.0 mph8.0 kmh 30.42 in1030.1 mb 0.00 in0.0 mm 0.00 in0.0 mm 0.06 in1.5 mm
06:55 PM 34.0°F1.1°C 32.2°F0.1°C 93% 1.0 mph NW1.6 kmh NW 5.0 mph8.0 kmh 30.43 in1030.5 mb 0.00 in0.0 mm 0.00 in0.0 mm 0.06 in1.5 mm
07:00 PM 34.0°F1.1°C 32.2°F0.1°C 93% 1.0 mph NW1.6 kmh NW 2.0 mph3.2 kmh 30.43 in1030.5 mb 0.00 in0.0 mm 0.00 in0.0 mm 0.06 in1.5 mm
07:05 PM 33.8°F1.0°C 32.0°F0.0°C 93% Calm Calm 2.0 mph3.2 kmh 30.43 in1030.5 mb 0.00 in0.0 mm 0.00 in0.0 mm 0.06 in1.5 mm
07:10 PM 33.8°F1.0°C 32.0°F0.0°C 93% Calm Calm 2.0 mph3.2 kmh 30.43 in1030.5 mb 0.00 in0.0 mm 0.00 in0.0 mm 0.06 in1.5 mm
07:15 PM 33.8°F1.0°C 32.0°F0.0°C 93% Calm Calm 2.0 mph3.2 kmh 30.43 in1030.5 mb 0.00 in0.0 mm 0.00 in0.0 mm 0.06 in1.5 mm
07:20 PM 33.8°F1.0°C 32.0°F0.0°C 93% Calm Calm 2.0 mph3.2 kmh 30.43 in1030.5 mb 0.00 in0.0 mm 0.00 in0.0 mm 0.06 in1.5 mm
07:25 PM 33.8°F1.0°C 32.0°F0.0°C 93% Calm Calm 1.0 mph1.6 kmh 30.43 in1030.5 mb 0.00 in0.0 mm 0.00 in0.0 mm 0.06 in1.5 mm
07:30 PM 33.6°F0.9°C 31.8°F-0.1°C 93% Calm Calm 1.0 mph1.6 kmh 30.43 in1030.5 mb 0.00 in0.0 mm 0.00 in0.0 mm 0.06 in1.5 mm
07:35 PM 33.6°F0.9°C 31.8°F-0.1°C 93% Calm Calm 2.0 mph3.2 kmh 30.43 in1030.5 mb 0.00 in0.0 mm 0.00 in0.0 mm 0.06 in1.5 mm
07:40 PM 33.6°F0.9°C 31.8°F-0.1°C 93% Calm Calm 2.0 mph3.2 kmh 30.43 in1030.5 mb 0.00 in0.0 mm 0.00 in0.0 mm 0.06 in1.5 mm
07:45 PM 33.6°F0.9°C 31.8°F-0.1°C 93% Calm Calm 2.0 mph3.2 kmh 30.43 in1030.5 mb 0.00 in0.0 mm 0.00 in0.0 mm 0.06 in1.5 mm
07:50 PM 33.6°F0.9°C 31.8°F-0.1°C 93% Calm Calm 1.0 mph1.6 kmh 30.43 in1030.5 mb 0.00 in0.0 mm 0.00 in0.0 mm 0.06 in1.5 mm
07:55 PM 33.6°F0.9°C 31.8°F-0.1°C 93% Calm Calm 3.0 mph4.8 kmh 30.44 in1030.8 mb 0.00 in0.0 mm 0.00 in0.0 mm 0.06 in1.5 mm
08:00 PM 33.6°F0.9°C 31.8°F-0.1°C 93% Calm Calm 3.0 mph4.8 kmh 30.44 in1030.8 mb 0.00 in0.0 mm 0.00 in0.0 mm 0.06 in1.5 mm
08:05 PM 33.6°F0.9°C 31.8°F-0.1°C 93% Calm Calm 1.0 mph1.6 kmh 30.43 in1030.5 mb 0.00 in0.0 mm 0.00 in0.0 mm 0.06 in1.5 mm
08:10 PM 33.4°F0.8°C 31.6°F-0.2°C 93% Calm Calm 1.0 mph1.6 kmh 30.43 in1030.5 mb 0.00 in0.0 mm 0.00 in0.0 mm 0.06 in1.5 mm
08:15 PM 33.4°F0.8°C 31.6°F-0.2°C 93% Calm Calm 1.0 mph1.6 kmh 30.43 in1030.5 mb 0.00 in0.0 mm 0.00 in0.0 mm 0.06 in1.5 mm
08:20 PM 33.4°F0.8°C 31.6°F-0.2°C 93% Calm Calm -- 30.43 in1030.5 mb 0.00 in0.0 mm 0.00 in0.0 mm 0.06 in1.5 mm
08:25 PM 33.4°F0.8°C 31.6°F-0.2°C 93% Calm Calm 2.0 mph3.2 kmh 30.43 in1030.5 mb 0.00 in0.0 mm 0.00 in0.0 mm 0.06 in1.5 mm
08:30 PM 33.4°F0.8°C 31.6°F-0.2°C 93% Calm Calm 2.0 mph3.2 kmh 30.43 in1030.5 mb 0.00 in0.0 mm 0.00 in0.0 mm 0.06 in1.5 mm
08:35 PM 33.4°F0.8°C 31.6°F-0.2°C 93% Calm Calm 2.0 mph3.2 kmh 30.43 in1030.5 mb 0.00 in0.0 mm 0.00 in0.0 mm 0.06 in1.5 mm
08:40 PM 33.4°F0.8°C 31.6°F-0.2°C 93% Calm Calm 1.0 mph1.6 kmh 30.43 in1030.5 mb 0.00 in0.0 mm 0.00 in0.0 mm 0.06 in1.5 mm
08:45 PM 33.4°F0.8°C 31.6°F-0.2°C 93% Calm Calm 1.0 mph1.6 kmh 30.43 in1030.5 mb 0.00 in0.0 mm 0.00 in0.0 mm 0.06 in1.5 mm
08:50 PM 33.4°F0.8°C 31.6°F-0.2°C 93% Calm Calm 2.0 mph3.2 kmh 30.43 in1030.5 mb 0.00 in0.0 mm 0.00 in0.0 mm 0.06 in1.5 mm
08:55 PM 33.4°F0.8°C 31.6°F-0.2°C 93% Calm Calm 2.0 mph3.2 kmh 30.43 in1030.5 mb 0.00 in0.0 mm 0.00 in0.0 mm 0.06 in1.5 mm
09:00 PM 33.4°F0.8°C 31.3°F-0.4°C 92% Calm Calm 1.0 mph1.6 kmh 30.43 in1030.5 mb 0.00 in0.0 mm 0.00 in0.0 mm 0.06 in1.5 mm
09:05 PM 33.4°F0.8°C 31.5°F-0.3°C 92% Calm Calm 3.0 mph4.8 kmh 30.43 in1030.5 mb 0.00 in0.0 mm 0.00 in0.0 mm 0.06 in1.5 mm
09:10 PM 33.4°F0.8°C 31.5°F-0.3°C 92% Calm Calm 3.0 mph4.8 kmh 30.43 in1030.5 mb 0.00 in0.0 mm 0.00 in0.0 mm 0.06 in1.5 mm
09:15 PM 33.4°F0.8°C 31.5°F-0.3°C 92% Calm Calm 1.0 mph1.6 kmh 30.43 in1030.5 mb 0.00 in0.0 mm 0.00 in0.0 mm 0.06 in1.5 mm
09:20 PM 33.4°F0.8°C 31.5°F-0.3°C 92% Calm Calm 1.0 mph1.6 kmh 30.43 in1030.5 mb 0.00 in0.0 mm 0.00 in0.0 mm 0.06 in1.5 mm
09:25 PM 33.4°F0.8°C 31.3°F-0.4°C 92% Calm Calm 1.0 mph1.6 kmh 30.42 in1030.1 mb 0.00 in0.0 mm 0.00 in0.0 mm 0.06 in1.5 mm
09:30 PM 33.4°F0.8°C 31.5°F-0.3°C 92% Calm Calm 1.0 mph1.6 kmh 30.42 in1030.1 mb 0.00 in0.0 mm 0.00 in0.0 mm 0.06 in1.5 mm
09:35 PM 33.4°F0.8°C 31.5°F-0.3°C 92% Calm Calm -- 30.43 in1030.5 mb 0.00 in0.0 mm 0.00 in0.0 mm 0.06 in1.5 mm
09:40 PM 33.4°F0.8°C 31.3°F-0.4°C 92% Calm Calm 1.0 mph1.6 kmh 30.43 in1030.5 mb 0.00 in0.0 mm 0.00 in0.0 mm 0.06 in1.5 mm
09:45 PM 33.3°F0.7°C 31.3°F-0.4°C 92% Calm Calm 1.0 mph1.6 kmh 30.43 in1030.5 mb 0.00 in0.0 mm 0.00 in0.0 mm 0.06 in1.5 mm
09:50 PM 33.4°F0.8°C 31.3°F-0.4°C 92% Calm Calm 1.0 mph1.6 kmh 30.43 in1030.5 mb 0.00 in0.0 mm 0.00 in0.0 mm 0.06 in1.5 mm
09:55 PM 33.4°F0.8°C 31.3°F-0.4°C 92% Calm Calm 1.0 mph1.6 kmh 30.43 in1030.5 mb 0.00 in0.0 mm 0.00 in0.0 mm 0.06 in1.5 mm
10:00 PM 33.4°F0.8°C 31.5°F-0.3°C 92% Calm Calm 1.0 mph1.6 kmh 30.43 in1030.5 mb 0.00 in0.0 mm 0.00 in0.0 mm 0.06 in1.5 mm
10:05 PM 33.4°F0.8°C 31.5°F-0.3°C 92% Calm Calm 2.0 mph3.2 kmh 30.42 in1030.1 mb 0.00 in0.0 mm 0.00 in0.0 mm 0.06 in1.5 mm
10:10 PM 33.6°F0.9°C 31.8°F-0.1°C 93% Calm Calm 2.0 mph3.2 kmh 30.43 in1030.5 mb 0.00 in0.0 mm 0.00 in0.0 mm 0.06 in1.5 mm
10:15 PM 33.6°F0.9°C 31.8°F-0.1°C 93% Calm Calm 2.0 mph3.2 kmh 30.42 in1030.1 mb 0.00 in0.0 mm 0.00 in0.0 mm 0.06 in1.5 mm
10:20 PM 33.6°F0.9°C 31.8°F-0.1°C 93% Calm Calm 3.0 mph4.8 kmh 30.42 in1030.1 mb 0.00 in0.0 mm 0.00 in0.0 mm 0.06 in1.5 mm
10:25 PM 33.6°F0.9°C 31.5°F-0.3°C 92% 1.0 mph SW1.6 kmh SW 3.0 mph4.8 kmh 30.42 in1030.1 mb 0.00 in0.0 mm 0.00 in0.0 mm 0.06 in1.5 mm
10:30 PM 33.6°F0.9°C 31.6°F-0.2°C 92% 1.0 mph WSW1.6 kmh WSW 3.0 mph4.8 kmh 30.42 in1030.1 mb 0.00 in0.0 mm 0.00 in0.0 mm 0.06 in1.5 mm
10:35 PM 33.6°F0.9°C 31.6°F-0.2°C 92% Calm Calm 3.0 mph4.8 kmh 30.42 in1030.1 mb 0.00 in0.0 mm 0.00 in0.0 mm 0.06 in1.5 mm
10:40 PM 33.6°F0.9°C 31.6°F-0.2°C 92% Calm Calm 2.0 mph3.2 kmh 30.42 in1030.1 mb 0.00 in0.0 mm 0.00 in0.0 mm 0.06 in1.5 mm
10:45 PM 33.6°F0.9°C 31.6°F-0.2°C 92% Calm Calm 3.0 mph4.8 kmh 30.42 in1030.1 mb 0.00 in0.0 mm 0.00 in0.0 mm 0.06 in1.5 mm
10:50 PM 33.6°F0.9°C 31.5°F-0.3°C 92% Calm Calm 3.0 mph4.8 kmh 30.42 in1030.1 mb 0.00 in0.0 mm 0.00 in0.0 mm 0.06 in1.5 mm
10:55 PM 33.6°F0.9°C 31.5°F-0.3°C 92% Calm Calm 3.0 mph4.8 kmh 30.42 in1030.1 mb 0.00 in0.0 mm 0.00 in0.0 mm 0.06 in1.5 mm
11:00 PM 33.6°F0.9°C 31.5°F-0.3°C 92% 1.0 mph SW1.6 kmh SW 4.0 mph6.4 kmh 30.42 in1030.1 mb 0.00 in0.0 mm 0.00 in0.0 mm 0.06 in1.5 mm
11:05 PM 33.6°F0.9°C 31.5°F-0.3°C 92% 1.0 mph SW1.6 kmh SW 5.0 mph8.0 kmh 30.42 in1030.1 mb 0.00 in0.0 mm 0.00 in0.0 mm 0.06 in1.5 mm
11:10 PM 33.6°F0.9°C 31.6°F-0.2°C 92% 1.0 mph WSW1.6 kmh WSW 5.0 mph8.0 kmh 30.42 in1030.1 mb 0.00 in0.0 mm 0.00 in0.0 mm 0.06 in1.5 mm
11:15 PM 33.6°F0.9°C 31.6°F-0.2°C 92% 1.0 mph WSW1.6 kmh WSW 5.0 mph8.0 kmh 30.41 in1029.8 mb 0.00 in0.0 mm 0.00 in0.0 mm 0.06 in1.5 mm
11:20 PM 33.6°F0.9°C 31.6°F-0.2°C 92% Calm Calm 2.0 mph3.2 kmh 30.41 in1029.8 mb 0.00 in0.0 mm 0.00 in0.0 mm 0.06 in1.5 mm
11:25 PM 33.6°F0.9°C 31.6°F-0.2°C 92% Calm Calm 2.0 mph3.2 kmh 30.41 in1029.8 mb 0.00 in0.0 mm 0.00 in0.0 mm 0.06 in1.5 mm
11:30 PM 33.8°F1.0°C 31.6°F-0.2°C 92% Calm Calm 1.0 mph1.6 kmh 30.41 in1029.8 mb 0.00 in0.0 mm 0.00 in0.0 mm 0.06 in1.5 mm
11:35 PM 33.6°F0.9°C 31.3°F-0.4°C 91% Calm Calm 1.0 mph1.6 kmh 30.40 in1029.5 mb 0.00 in0.0 mm 0.00 in0.0 mm 0.06 in1.5 mm
11:40 PM 33.6°F0.9°C 31.3°F-0.4°C 91% Calm Calm 1.0 mph1.6 kmh 30.40 in1029.5 mb 0.00 in0.0 mm 0.00 in0.0 mm 0.06 in1.5 mm
11:45 PM 33.6°F0.9°C 31.3°F-0.4°C 91% Calm Calm 2.0 mph3.2 kmh 30.40 in1029.5 mb 0.00 in0.0 mm 0.00 in0.0 mm 0.06 in1.5 mm
11:50 PM 33.6°F0.9°C 31.3°F-0.4°C 91% Calm Calm 3.0 mph4.8 kmh 30.40 in1029.5 mb 0.00 in0.0 mm 0.00 in0.0 mm 0.06 in1.5 mm
11:55 PM 33.6°F0.9°C 31.3°F-0.4°C 91% Calm Calm 6.0 mph9.7 kmh 30.40 in1029.5 mb 0.00 in0.0 mm 0.00 in0.0 mm 0.06 in1.5 mm